Time;durP1;ratioP1;P1;durP2;ratioP2;P2;SDS_P1;SDS_P2;PMS_P1;PMS_P2;Temp;Humidity;BMP_temperature;BMP_pressure;BME280_temperature;BME280_humidity;BME280_pressure;Samples;Min_cycle;Max_cycle;Signal;HPM_P1;HPM_P2
2023/08/29 00:01:23;;;;;;;24.30;23.43;;;15.60;99.90;;;;;;5092071;28;20254;-65
2023/08/29 00:03:51;;;;;;;22.80;22.00;;;15.70;99.90;;;;;;5091971;28;20581;-65
2023/08/29 00:06:18;;;;;;;22.97;22.17;;;15.60;99.90;;;;;;5092070;28;20207;-64
2023/08/29 00:08:44;;;;;;;24.53;23.67;;;15.50;99.90;;;;;;5091937;28;20584;-64
2023/08/29 00:11:11;;;;;;;23.80;23.00;;;15.50;99.90;;;;;;5091851;28;20237;-63
2023/08/29 00:13:38;;;;;;;26.00;25.10;;;15.60;99.90;;;;;;5091908;28;20296;-64
2023/08/29 00:16:07;;;;;;;24.10;23.27;;;15.50;99.90;;;;;;5092173;28;20203;-64
2023/08/29 00:18:33;;;;;;;24.83;23.93;;;15.50;99.90;;;;;;5092183;28;20226;-65
2023/08/29 00:21:00;;;;;;;22.83;21.97;;;15.60;99.90;;;;;;5091645;28;20233;-65
2023/08/29 00:23:27;;;;;;;25.63;24.73;;;15.60;99.90;;;;;;5092224;28;20217;-65
2023/08/29 00:25:54;;;;;;;24.13;23.23;;;15.60;99.90;;;;;;5092013;28;20203;-64
2023/08/29 00:28:21;;;;;;;25.07;24.20;;;15.70;99.90;;;;;;5091768;28;20217;-65
2023/08/29 00:30:48;;;;;;;26.43;25.53;;;15.70;99.90;;;;;;5091821;28;20233;-65
2023/08/29 00:33:17;;;;;;;26.13;25.23;;;15.70;99.90;;;;;;5091328;28;20666;-65
2023/08/29 00:35:44;;;;;;;27.70;26.73;;;15.70;99.90;;;;;;5091568;28;20213;-66
2023/08/29 00:38:12;;;;;;;26.67;25.77;;;15.70;99.90;;;;;;5091493;28;20579;-65
2023/08/29 00:40:39;;;;;;;27.87;26.87;;;15.70;99.90;;;;;;5091314;28;20310;-65
2023/08/29 00:43:06;;;;;;;23.47;22.67;;;15.70;99.90;;;;;;5091084;28;20283;-66
2023/08/29 00:45:34;;;;;;;23.77;22.97;;;15.80;99.90;;;;;;5091376;28;20209;-62
2023/08/29 00:48:02;;;;;;;26.67;25.77;;;15.80;99.90;;;;;;5091495;28;20197;-65
2023/08/29 00:50:31;;;;;;;24.53;23.67;;;15.70;99.90;;;;;;5091644;28;20234;-64
2023/08/29 00:53:01;;;;;;;23.37;22.57;;;15.70;99.90;;;;;;5091696;28;20658;-65
2023/08/29 00:55:29;;;;;;;24.30;23.50;;;15.70;99.90;;;;;;5091526;28;20209;-65
2023/08/29 00:57:56;;;;;;;25.90;24.93;;;15.70;99.90;;;;;;5091305;28;20202;-65
2023/08/29 01:00:23;;;;;;;27.57;26.57;;;15.70;99.90;;;;;;5092614;28;20744;-64
2023/08/29 01:02:50;;;;;;;27.33;26.33;;;15.70;99.90;;;;;;5093149;28;20226;-65
2023/08/29 01:05:17;;;;;;;25.17;24.27;;;15.70;99.90;;;;;;5093794;28;20209;-65
2023/08/29 01:07:45;;;;;;;24.50;23.67;;;15.80;99.90;;;;;;5094468;28;20312;-65
2023/08/29 01:10:12;;;;;;;24.50;23.67;;;15.80;99.90;;;;;;5093999;28;20219;-65
2023/08/29 01:12:45;;;;;;;26.07;25.17;;;15.80;99.90;;;;;;5091652;28;20351;-63
2023/08/29 01:15:20;;;;;;;25.83;24.93;;;15.90;99.90;;;;;;5091687;28;20197;-64
2023/08/29 01:17:51;;;;;;;26.83;25.90;;;15.80;99.90;;;;;;5090492;28;20208;-66
2023/08/29 01:20:18;;;;;;;27.13;26.20;;;15.80;99.90;;;;;;5091089;28;20230;-66
2023/08/29 01:22:58;;;;;;;26.93;25.93;;;15.80;99.90;;;;;;5090393;28;20226;-66
2023/08/29 01:25:31;;;;;;;25.73;24.83;;;15.80;99.90;;;;;;5090336;28;20206;-62
2023/08/29 01:28:01;;;;;;;23.73;22.93;;;15.70;99.90;;;;;;5090666;28;20191;-65
2023/08/29 01:30:29;;;;;;;24.33;23.50;;;15.70;99.90;;;;;;5090051;28;20420;-65
2023/08/29 01:32:56;;;;;;;24.63;23.73;;;15.70;99.90;;;;;;5090093;28;20700;-64
2023/08/29 01:35:23;;;;;;;23.27;22.48;;;15.70;99.90;;;;;;5090537;28;20202;-65
2023/08/29 01:37:50;;;;;;;22.73;21.93;;;15.60;99.90;;;;;;5088947;28;20674;-64
2023/08/29 01:40:17;;;;;;;26.63;25.73;;;15.70;99.90;;;;;;5090490;28;20222;-65
2023/08/29 01:42:44;;;;;;;24.80;23.90;;;15.70;99.90;;;;;;5090056;28;20218;-65
2023/08/29 01:45:12;;;;;;;22.73;21.93;;;15.60;99.90;;;;;;5090690;28;20252;-64
2023/08/29 01:47:39;;;;;;;25.50;24.60;;;15.60;99.90;;;;;;5090624;28;20298;-65
2023/08/29 01:50:08;;;;;;;23.77;22.97;;;15.60;99.90;;;;;;5107778;22;20234;-67
2023/08/29 01:52:36;;;;;;;25.30;24.43;;;15.50;99.90;;;;;;5095844;28;20216;-67
2023/08/29 01:55:03;;;;;;;24.03;23.23;;;15.50;99.90;;;;;;5111433;28;20197;-67
2023/08/29 01:57:34;;;;;;;24.93;24.07;;;15.60;99.90;;;;;;5111578;28;20204;-65
2023/08/29 02:00:02;;;;;;;25.37;24.47;;;15.60;99.90;;;;;;5111805;28;20205;-67
2023/08/29 02:02:30;;;;;;;22.87;22.07;;;15.50;99.90;;;;;;5111088;28;20249;-66
2023/08/29 02:04:57;;;;;;;22.63;21.83;;;15.50;99.90;;;;;;5111440;28;20202;-66
2023/08/29 02:07:24;;;;;;;24.47;23.63;;;15.50;99.90;;;;;;5111145;28;20224;-65
2023/08/29 02:09:51;;;;;;;23.10;22.30;;;15.50;99.90;;;;;;5111374;28;20300;-68
2023/08/29 02:12:17;;;;;;;23.73;22.93;;;15.50;99.90;;;;;;5111004;28;20714;-67
2023/08/29 02:14:44;;;;;;;22.37;21.57;;;15.50;99.90;;;;;;5114543;28;20212;-68
2023/08/29 02:17:11;;;;;;;26.13;25.13;;;15.50;99.90;;;;;;5119081;28;20208;-67
2023/08/29 02:19:39;;;;;;;23.17;22.37;;;15.50;99.90;;;;;;5112451;28;20635;-68
2023/08/29 02:22:06;;;;;;;23.60;22.80;;;15.40;99.90;;;;;;5111928;28;20232;-67
2023/08/29 02:24:33;;;;;;;24.23;23.40;;;15.50;99.90;;;;;;5111973;28;20206;-68
2023/08/29 02:26:59;;;;;;;24.70;23.83;;;15.50;99.90;;;;;;5112551;28;20210;-68
2023/08/29 02:29:26;;;;;;;23.60;22.70;;;15.60;99.90;;;;;;5112485;28;20197;-68
2023/08/29 02:31:53;;;;;;;22.90;22.10;;;15.60;99.90;;;;;;5115732;28;20218;-68
2023/08/29 02:34:20;;;;;;;23.37;22.57;;;15.60;99.90;;;;;;5115654;28;20588;-68
2023/08/29 02:36:48;;;;;;;23.50;22.63;;;15.60;99.90;;;;;;5115978;28;20202;-68
2023/08/29 02:39:15;;;;;;;23.40;22.60;;;15.60;99.90;;;;;;5115720;28;20212;-67
2023/08/29 02:41:42;;;;;;;23.60;22.80;;;15.60;99.90;;;;;;5114567;28;20261;-68
2023/08/29 02:44:09;;;;;;;23.10;22.30;;;15.60;99.90;;;;;;5114727;28;20293;-68
2023/08/29 02:46:35;;;;;;;24.30;23.47;;;15.60;99.90;;;;;;5114617;28;20212;-68
2023/08/29 02:49:02;;;;;;;25.47;24.57;;;15.50;99.90;;;;;;5114839;28;20305;-68
2023/08/29 02:51:29;;;;;;;26.13;25.20;;;15.60;99.90;;;;;;5114186;28;20226;-68
2023/08/29 02:53:57;;;;;;;22.80;22.00;;;15.60;99.90;;;;;;5114367;28;20206;-67
2023/08/29 02:56:24;;;;;;;24.37;23.50;;;15.50;99.90;;;;;;5114525;28;20201;-67
2023/08/29 02:58:54;;;;;;;24.93;24.07;;;15.50;99.90;;;;;;5114276;28;20213;-66
2023/08/29 03:01:21;;;;;;;21.67;20.93;;;15.50;99.90;;;;;;5114235;28;20227;-67
2023/08/29 03:03:47;;;;;;;22.03;21.27;;;15.40;99.90;;;;;;5114158;28;20230;-66
2023/08/29 03:06:14;;;;;;;23.67;22.80;;;15.40;99.90;;;;;;5114432;28;20263;-67
2023/08/29 03:08:41;;;;;;;23.77;22.97;;;15.40;99.90;;;;;;5114424;28;20213;-67
2023/08/29 03:11:09;;;;;;;24.47;23.63;;;15.40;99.90;;;;;;5114235;28;20248;-66
2023/08/29 03:13:36;;;;;;;23.57;22.77;;;15.40;99.90;;;;;;5114342;28;20208;-67
2023/08/29 03:16:11;;;;;;;20.13;19.43;;;15.40;99.90;;;;;;5114179;28;20740;-67
2023/08/29 03:18:38;;;;;;;20.97;20.27;;;15.40;99.90;;;;;;5114312;28;20190;-67
2023/08/29 03:21:06;;;;;;;21.47;20.77;;;15.40;99.90;;;;;;5113828;28;20804;-67
2023/08/29 03:23:33;;;;;;;22.57;21.77;;;15.40;99.90;;;;;;5114210;28;20244;-67
2023/08/29 03:26:04;;;;;;;23.17;22.37;;;15.40;99.90;;;;;;5114071;28;20205;-68
2023/08/29 03:28:33;;;;;;;22.30;21.53;;;15.40;99.90;;;;;;5113743;28;20206;-68
2023/08/29 03:31:08;;;;;;;21.97;21.20;;;15.40;99.90;;;;;;5114851;28;20221;-68
2023/08/29 03:33:35;;;;;;;21.83;21.10;;;15.40;99.90;;;;;;5114312;28;20194;-67
2023/08/29 03:36:02;;;;;;;21.47;20.67;;;15.40;99.90;;;;;;5114157;28;20202;-68
2023/08/29 03:38:29;;;;;;;20.90;20.20;;;15.30;99.90;;;;;;5115989;28;20209;-68
2023/08/29 03:40:57;;;;;;;25.07;24.20;;;15.30;99.90;;;;;;5116061;28;20221;-69
2023/08/29 03:43:24;;;;;;;23.03;22.23;;;15.30;99.90;;;;;;5116788;28;20222;-68
2023/08/29 03:45:57;;;;;;;21.13;20.43;;;15.30;99.90;;;;;;5115135;28;20206;-67
2023/08/29 03:48:24;;;;;;;22.17;21.40;;;15.30;99.90;;;;;;5113955;28;20943;-67
2023/08/29 03:50:51;;;;;;;22.00;21.27;;;15.30;99.90;;;;;;5113094;28;20229;-66
2023/08/29 03:53:18;;;;;;;24.33;23.53;;;15.30;99.90;;;;;;5113733;28;20229;-67
2023/08/29 03:55:45;;;;;;;22.30;21.53;;;15.30;99.90;;;;;;5113431;28;20220;-67
2023/08/29 03:58:12;;;;;;;22.20;21.43;;;15.30;99.90;;;;;;5113103;28;20433;-66
2023/08/29 04:00:39;;;;;;;20.90;20.20;;;15.30;99.90;;;;;;5113154;28;20253;-67
2023/08/29 04:03:07;;;;;;;20.30;19.60;;;15.30;99.90;;;;;;5113178;28;20229;-66
2023/08/29 04:05:36;;;;;;;22.57;21.77;;;15.20;99.90;;;;;;5113338;28;20289;-68
2023/08/29 04:08:04;;;;;;;22.10;21.30;;;15.20;99.90;;;;;;5113320;28;20247;-68
2023/08/29 04:10:36;;;;;;;21.03;20.33;;;15.20;99.90;;;;;;5112786;28;20230;-67
2023/08/29 04:13:03;;;;;;;23.33;22.53;;;15.20;99.90;;;;;;5113125;28;20186;-66
2023/08/29 04:15:30;;;;;;;21.67;20.93;;;15.20;99.90;;;;;;5114883;28;20292;-68
2023/08/29 04:17:57;;;;;;;22.60;21.80;;;15.20;99.90;;;;;;5114719;28;20209;-68
2023/08/29 04:20:25;;;;;;;21.77;21.03;;;15.20;99.90;;;;;;5113564;28;20253;-67
2023/08/29 04:22:52;;;;;;;21.50;20.70;;;15.30;99.90;;;;;;5112959;28;20221;-66
2023/08/29 04:25:19;;;;;;;22.20;21.43;;;15.20;99.90;;;;;;5113010;28;20310;-66
2023/08/29 04:27:48;;;;;;;23.70;22.87;;;15.10;99.90;;;;;;5113247;28;20210;-66
2023/08/29 04:30:14;;;;;;;24.67;23.80;;;15.10;99.90;;;;;;5112935;28;20202;-67
2023/08/29 04:32:41;;;;;;;20.23;19.53;;;15.10;99.90;;;;;;5112707;28;20577;-67
2023/08/29 04:35:10;;;;;;;22.27;21.50;;;15.10;99.90;;;;;;5112862;28;20216;-67
2023/08/29 04:37:38;;;;;;;20.40;19.70;;;15.10;99.90;;;;;;5112643;28;20274;-66
2023/08/29 04:40:07;;;;;;;23.07;22.27;;;15.10;99.90;;;;;;5113482;28;20214;-67
2023/08/29 04:42:34;;;;;;;24.27;23.43;;;15.10;99.90;;;;;;5114743;28;20238;-67
2023/08/29 04:45:04;;;;;;;22.40;21.63;;;15.10;99.90;;;;;;5117759;28;20202;-66
2023/08/29 04:47:31;;;;;;;22.93;22.10;;;15.10;99.90;;;;;;5096896;28;20615;-67
2023/08/29 04:49:58;;;;;;;21.20;20.50;;;15.20;99.90;;;;;;5095652;28;20206;-66
2023/08/29 04:52:26;;;;;;;22.93;22.13;;;15.20;99.90;;;;;;5089437;28;20208;-67
2023/08/29 04:54:54;;;;;;;20.40;19.70;;;15.30;99.90;;;;;;5092257;28;20210;-67
2023/08/29 04:57:21;;;;;;;20.07;19.37;;;15.30;99.90;;;;;;5092611;28;20572;-65
2023/08/29 04:59:48;;;;;;;22.30;21.50;;;15.30;99.90;;;;;;5092903;28;20211;-66
2023/08/29 05:02:15;;;;;;;20.10;19.40;;;15.20;99.90;;;;;;5108608;28;20213;-65
2023/08/29 05:04:43;;;;;;;23.23;22.40;;;15.20;99.90;;;;;;5074520;28;20199;-65
2023/08/29 05:07:10;;;;;;;23.17;22.30;;;15.20;99.90;;;;;;5071856;28;20210;-65
2023/08/29 05:09:37;;;;;;;22.47;21.70;;;15.20;99.90;;;;;;5071796;28;20235;-66
2023/08/29 05:12:07;;;;;;;20.77;20.07;;;15.30;99.90;;;;;;5071072;28;20229;-66
2023/08/29 05:14:33;;;;;;;24.90;24.07;;;15.30;99.90;;;;;;5080949;28;20202;-66
2023/08/29 05:17:00;;;;;;;24.27;23.47;;;15.30;99.90;;;;;;5091980;28;20202;-66
2023/08/29 05:19:27;;;;;;;23.00;22.20;;;15.40;99.90;;;;;;5091701;28;20207;-65
2023/08/29 05:21:54;;;;;;;22.43;21.67;;;15.40;99.90;;;;;;5090088;28;20746;-66
2023/08/29 05:24:21;;;;;;;22.17;21.37;;;15.40;99.90;;;;;;5090744;28;20716;-66
2023/08/29 05:26:48;;;;;;;25.47;24.57;;;15.40;99.90;;;;;;5091732;28;20226;-66
2023/08/29 05:29:16;;;;;;;27.00;26.10;;;15.40;99.90;;;;;;5091501;28;20280;-68
2023/08/29 05:31:43;;;;;;;24.67;23.87;;;15.50;99.90;;;;;;5090834;28;20261;-68
2023/08/29 05:34:10;;;;;;;21.60;20.87;;;15.50;99.90;;;;;;5091143;28;20904;-66
2023/08/29 05:36:37;;;;;;;24.33;23.53;;;15.50;99.90;;;;;;5091406;28;20206;-66
2023/08/29 05:39:04;;;;;;;22.93;22.13;;;15.50;99.90;;;;;;5091246;28;20255;-66
2023/08/29 05:41:32;;;;;;;21.03;20.30;;;15.60;99.90;;;;;;5090735;28;20305;-66
2023/08/29 05:43:59;;;;;;;23.70;22.90;;;15.60;99.90;;;;;;5091203;28;20258;-66
2023/08/29 05:46:27;;;;;;;23.60;22.80;;;15.70;99.90;;;;;;5091193;28;20290;-66
2023/08/29 05:48:54;;;;;;;23.40;22.60;;;15.70;99.90;;;;;;5091058;28;20210;-66
2023/08/29 05:51:21;;;;;;;23.23;22.43;;;15.70;99.90;;;;;;5090450;28;20245;-66
2023/08/29 05:53:48;;;;;;;23.50;22.70;;;15.80;99.90;;;;;;5086824;28;20879;-66
2023/08/29 05:56:15;;;;;;;24.27;23.43;;;15.70;99.90;;;;;;5089391;28;20623;-66
2023/08/29 05:58:42;;;;;;;20.70;19.97;;;15.80;99.90;;;;;;5079380;28;20748;-65
2023/08/29 06:01:09;;;;;;;22.53;21.77;;;15.80;99.90;;;;;;5085822;28;20733;-63
2023/08/29 06:03:37;;;;;;;23.80;22.93;;;15.90;99.90;;;;;;5084300;28;20318;-66
2023/08/29 06:06:04;;;;;;;21.53;20.77;;;15.80;99.90;;;;;;5095027;28;20650;-65
2023/08/29 06:08:33;;;;;;;23.80;23.00;;;15.80;99.90;;;;;;5095829;28;20247;-65
2023/08/29 06:11:00;;;;;;;22.83;22.03;;;15.90;99.90;;;;;;5095218;28;20226;-64
2023/08/29 06:13:27;;;;;;;21.40;20.63;;;15.90;99.90;;;;;;5095338;28;20198;-65
2023/08/29 06:15:55;;;;;;;21.00;20.27;;;15.90;99.90;;;;;;5095554;28;20207;-66
2023/08/29 06:18:21;;;;;;;19.83;19.17;;;15.90;99.90;;;;;;5097737;28;20206;-66
2023/08/29 06:20:50;;;;;;;21.40;20.67;;;15.90;99.90;;;;;;5095233;28;20253;-65
2023/08/29 06:23:16;;;;;;;20.57;19.83;;;15.90;99.90;;;;;;5094575;28;20600;-65
2023/08/29 06:25:43;;;;;;;25.70;24.80;;;15.90;99.90;;;;;;5095114;28;20293;-65
2023/08/29 06:28:10;;;;;;;18.87;18.23;;;15.90;99.90;;;;;;5095265;28;20598;-65
2023/08/29 06:30:37;;;;;;;22.70;21.93;;;15.90;99.90;;;;;;5095207;28;20236;-65
2023/08/29 06:33:06;;;;;;;25.07;24.17;;;15.90;99.90;;;;;;5094536;28;20808;-65
2023/08/29 06:35:36;;;;;;;19.57;18.83;;;15.90;99.90;;;;;;5088574;28;20588;-65
2023/08/29 06:38:05;;;;;;;24.57;23.70;;;16.00;99.90;;;;;;5094063;28;20228;-65
2023/08/29 06:40:32;;;;;;;24.87;23.93;;;16.00;99.90;;;;;;5087700;28;20305;-65
2023/08/29 06:42:58;;;;;;;20.35;19.65;;;16.00;99.90;;;;;;5089072;28;20720;-65
2023/08/29 06:45:25;;;;;;;21.67;20.90;;;16.00;99.90;;;;;;5088663;28;20226;-64
2023/08/29 06:47:52;;;;;;;20.80;20.07;;;16.00;99.90;;;;;;5094104;28;20207;-64
2023/08/29 06:50:19;;;;;;;22.50;21.73;;;16.00;99.90;;;;;;5091696;28;20567;-66
2023/08/29 06:52:46;;;;;;;25.47;24.57;;;16.10;99.90;;;;;;5092504;28;20203;-65
2023/08/29 06:55:15;;;;;;;21.70;20.93;;;16.20;99.90;;;;;;5088326;28;20681;-66
2023/08/29 06:57:42;;;;;;;20.30;19.53;;;16.20;99.90;;;;;;5087253;28;20206;-64
2023/08/29 07:00:11;;;;;;;20.80;20.07;;;16.20;99.90;;;;;;5089360;28;20230;-65
2023/08/29 07:02:38;;;;;;;21.03;20.33;;;16.20;99.90;;;;;;5088727;28;20258;-64
2023/08/29 07:05:05;;;;;;;22.40;21.60;;;16.30;99.90;;;;;;5093088;28;20232;-65
2023/08/29 07:07:32;;;;;;;22.33;21.53;;;16.40;99.90;;;;;;5093760;28;20747;-64
2023/08/29 07:09:59;;;;;;;19.73;19.00;;;16.40;99.90;;;;;;5094126;28;20202;-65
2023/08/29 07:12:27;;;;;;;22.13;21.33;;;16.40;99.90;;;;;;5093699;28;20287;-64
2023/08/29 07:14:54;;;;;;;23.67;22.83;;;16.40;99.90;;;;;;5094303;28;20205;-66
2023/08/29 07:17:21;;;;;;;20.30;19.57;;;16.40;99.90;;;;;;5084490;28;20211;-65
2023/08/29 07:19:48;;;;;;;22.37;21.53;;;16.40;99.90;;;;;;5090017;28;20276;-66
2023/08/29 07:22:15;;;;;;;24.67;23.80;;;16.40;99.90;;;;;;5091338;28;20289;-65
2023/08/29 07:24:43;;;;;;;19.03;18.37;;;16.40;99.90;;;;;;5093098;28;20218;-65
2023/08/29 07:27:10;;;;;;;24.90;24.03;;;16.40;99.90;;;;;;5088283;28;20206;-65
2023/08/29 07:29:39;;;;;;;15.17;14.67;;;16.50;99.90;;;;;;5093908;28;20259;-65
2023/08/29 07:32:06;;;;;;;19.37;18.67;;;16.50;99.90;;;;;;5088881;28;20226;-64
2023/08/29 07:34:34;;;;;;;16.37;15.73;;;16.60;99.90;;;;;;5087918;28;20602;-66
2023/08/29 07:37:00;;;;;;;15.33;14.83;;;16.70;99.90;;;;;;5086743;28;20207;-65
2023/08/29 07:39:27;;;;;;;14.73;14.23;;;16.80;99.90;;;;;;5092468;28;20229;-66
2023/08/29 07:41:54;;;;;;;14.80;14.30;;;16.80;99.90;;;;;;5092976;28;20321;-66
2023/08/29 07:44:21;;;;;;;16.40;15.80;;;16.80;99.90;;;;;;5087285;28;20211;-66
2023/08/29 07:46:49;;;;;;;17.63;17.00;;;16.90;99.90;;;;;;5083168;28;20214;-64
2023/08/29 07:49:20;;;;;;;17.63;17.03;;;16.90;99.90;;;;;;5091813;28;20198;-65
2023/08/29 07:51:47;;;;;;;16.70;16.10;;;16.90;99.90;;;;;;5088354;28;20230;-66
2023/08/29 07:54:13;;;;;;;14.90;14.40;;;16.90;99.90;;;;;;5090780;28;20658;-65
2023/08/29 07:56:40;;;;;;;14.90;14.40;;;17.00;99.90;;;;;;5093664;28;20622;-65
2023/08/29 07:59:07;;;;;;;14.57;14.07;;;17.00;99.90;;;;;;5092538;28;20397;-66
2023/08/29 08:01:34;;;;;;;14.27;13.77;;;17.10;99.90;;;;;;5088914;28;20224;-65
2023/08/29 08:04:03;;;;;;;13.93;13.43;;;17.10;99.90;;;;;;5089878;28;20222;-66
2023/08/29 08:06:29;;;;;;;14.30;13.80;;;17.20;99.90;;;;;;5090845;28;20221;-65
2023/08/29 08:08:56;;;;;;;13.80;13.30;;;17.30;99.90;;;;;;5085070;28;20209;-65
2023/08/29 08:11:23;;;;;;;13.00;12.60;;;17.30;99.90;;;;;;5089689;28;20702;-65
2023/08/29 08:13:50;;;;;;;13.03;12.53;;;17.40;99.90;;;;;;5092632;28;20195;-65
2023/08/29 08:16:17;;;;;;;11.43;11.03;;;17.50;99.90;;;;;;5121125;22;20226;-64
2023/08/29 08:18:44;;;;;;;11.63;11.23;;;17.60;99.90;;;;;;5113523;27;20206;-62
2023/08/29 08:21:12;;;;;;;10.60;10.20;;;17.50;99.90;;;;;;5112341;28;20204;-64
2023/08/29 08:23:39;;;;;;;10.50;10.10;;;17.60;99.90;;;;;;5112489;27;20252;-64
2023/08/29 08:26:06;;;;;;;10.20;9.90;;;17.70;99.90;;;;;;5108563;28;20663;-64
2023/08/29 08:28:33;;;;;;;10.20;9.90;;;17.80;99.90;;;;;;5104952;28;20205;-63
2023/08/29 08:30:59;;;;;;;10.60;10.20;;;17.90;99.90;;;;;;5105397;27;20288;-63
2023/08/29 08:33:26;;;;;;;10.27;9.97;;;18.00;99.90;;;;;;5106995;28;20235;-65
2023/08/29 08:35:53;;;;;;;10.70;10.30;;;17.80;99.90;;;;;;5107732;28;20244;-65
2023/08/29 08:38:21;;;;;;;11.50;11.10;;;17.70;99.90;;;;;;5102210;27;20208;-63
2023/08/29 08:40:48;;;;;;;14.47;13.97;;;17.60;99.90;;;;;;5104597;27;20209;-61
2023/08/29 08:43:16;;;;;;;12.60;12.20;;;17.60;99.90;;;;;;5113317;28;20221;-65
2023/08/29 08:45:44;;;;;;;13.33;12.87;;;17.40;99.90;;;;;;5113648;27;20578;-65
2023/08/29 08:48:11;;;;;;;13.97;13.40;;;17.30;99.90;;;;;;5106187;28;20571;-64
2023/08/29 08:50:39;;;;;;;14.60;14.10;;;17.10;99.90;;;;;;5108881;28;20224;-67
2023/08/29 08:53:07;;;;;;;15.00;14.50;;;17.10;99.90;;;;;;5108478;28;20213;-64
2023/08/29 08:55:35;;;;;;;16.60;16.03;;;17.00;99.90;;;;;;5103322;27;20224;-67
2023/08/29 08:58:03;;;;;;;19.17;18.50;;;17.00;99.90;;;;;;5101136;27;20201;-63
2023/08/29 09:00:30;;;;;;;18.13;17.50;;;16.80;99.90;;;;;;5102048;28;20194;-64
2023/08/29 09:02:58;;;;;;;16.83;16.23;;;16.80;99.90;;;;;;5110717;28;20212;-65
2023/08/29 09:05:25;;;;;;;15.60;15.07;;;16.80;99.90;;;;;;5102048;28;20223;-64
2023/08/29 09:07:52;;;;;;;16.00;15.40;;;16.90;99.90;;;;;;5099666;27;20194;-64
2023/08/29 09:10:19;;;;;;;15.33;14.80;;;17.00;99.90;;;;;;5099660;27;20202;-67
2023/08/29 09:12:49;;;;;;;15.37;14.87;;;17.10;99.90;;;;;;5109410;28;20206;-66
2023/08/29 09:15:17;;;;;;;14.40;13.90;;;17.10;99.90;;;;;;5111385;28;20198;-64
2023/08/29 09:17:46;;;;;;;15.90;15.30;;;17.20;99.90;;;;;;5116825;27;20201;-64
2023/08/29 09:20:13;;;;;;;14.43;13.93;;;17.40;99.90;;;;;;5122781;27;20205;-63
2023/08/29 09:22:42;;;;;;;15.33;14.83;;;17.50;99.90;;;;;;5121007;27;20289;-64
2023/08/29 09:25:10;;;;;;;13.90;13.40;;;17.70;99.90;;;;;;5129104;27;20253;-65
2023/08/29 09:27:41;;;;;;;13.37;12.87;;;17.80;99.90;;;;;;5122993;27;20206;-65
2023/08/29 09:30:11;;;;;;;15.20;14.70;;;17.90;99.90;;;;;;5121538;27;20209;-66
2023/08/29 09:32:40;;;;;;;13.57;13.07;;;18.10;99.90;;;;;;5123617;27;20327;-64
2023/08/29 09:35:08;;;;;;;10.93;10.53;;;18.00;99.90;;;;;;5122879;27;20235;-64
2023/08/29 09:37:40;;;;;;;12.60;12.20;;;18.10;99.90;;;;;;5122583;27;20660;-64
2023/08/29 09:40:09;;;;;;;10.73;10.33;;;18.30;99.90;;;;;;5119939;27;20201;-64
2023/08/29 09:42:36;;;;;;;13.13;12.70;;;18.40;99.90;;;;;;5117294;27;20197;-63
2023/08/29 09:45:08;;;;;;;11.57;11.17;;;18.60;99.90;;;;;;5121814;28;20579;-64
2023/08/29 09:47:36;;;;;;;10.20;9.90;;;18.60;99.90;;;;;;5121241;28;20198;-63
2023/08/29 09:50:04;;;;;;;12.87;12.43;;;18.70;99.90;;;;;;5121776;28;20283;-63
2023/08/29 09:52:31;;;;;;;10.93;10.53;;;18.80;99.90;;;;;;5122894;28;20668;-65
2023/08/29 09:55:01;;;;;;;11.20;10.80;;;18.90;99.90;;;;;;5121162;28;20232;-65
2023/08/29 09:57:31;;;;;;;11.50;11.10;;;18.90;99.90;;;;;;5123160;28;20213;-64
2023/08/29 09:59:59;;;;;;;12.07;11.67;;;19.20;99.90;;;;;;5119474;28;20224;-64
2023/08/29 10:02:30;;;;;;;12.40;12.00;;;19.00;99.90;;;;;;5122752;28;20201;-64
2023/08/29 10:05:06;;;;;;;12.33;11.90;;;19.00;99.90;;;;;;5123195;28;20312;-64
2023/08/29 10:07:40;;;;;;;12.87;12.47;;;19.20;99.90;;;;;;5122757;28;20196;-66
2023/08/29 10:10:09;;;;;;;12.63;12.23;;;19.30;99.90;;;;;;5123849;28;20222;-64
2023/08/29 10:12:36;;;;;;;12.40;12.00;;;19.40;99.90;;;;;;5122354;28;20247;-65
2023/08/29 10:15:04;;;;;;;12.50;12.10;;;19.50;99.90;;;;;;5125940;28;20568;-65
2023/08/29 10:17:32;;;;;;;12.93;12.43;;;19.60;99.90;;;;;;5124332;28;20630;-65
2023/08/29 10:20:04;;;;;;;12.30;11.90;;;19.70;99.90;;;;;;5120507;28;20198;-64
2023/08/29 10:22:31;;;;;;;12.10;11.70;;;19.70;99.90;;;;;;5126973;28;20300;-63
2023/08/29 10:25:01;;;;;;;13.13;12.70;;;19.70;99.90;;;;;;5126276;28;20673;-64
2023/08/29 10:27:28;;;;;;;12.93;12.53;;;19.90;99.90;;;;;;5126803;28;20217;-64
2023/08/29 10:29:55;;;;;;;12.50;12.10;;;19.90;99.90;;;;;;5121710;28;20198;-64
2023/08/29 10:32:23;;;;;;;13.33;12.83;;;20.00;99.90;;;;;;5114051;28;20244;-63
2023/08/29 10:34:51;;;;;;;12.57;12.17;;;20.00;99.90;;;;;;5113328;28;20233;-63
2023/08/29 10:37:20;;;;;;;12.27;11.87;;;20.20;99.90;;;;;;5116880;28;20257;-64
2023/08/29 10:39:47;;;;;;;13.23;12.73;;;20.50;99.90;;;;;;5118046;28;20202;-65
2023/08/29 10:42:15;;;;;;;14.03;13.53;;;20.60;99.90;;;;;;5129618;28;20240;-63
2023/08/29 10:44:44;;;;;;;13.00;12.60;;;20.70;99.90;;;;;;5144725;28;20221;-64
2023/08/29 10:47:23;;;;;;;13.20;12.70;;;20.60;99.90;;;;;;5150304;28;20214;-60
2023/08/29 10:49:57;;;;;;;13.20;12.70;;;20.60;99.90;;;;;;5135440;28;20278;-63
2023/08/29 10:52:38;;;;;;;12.87;12.37;;;20.70;99.90;;;;;;5130194;27;20199;-64
2023/08/29 10:55:18;;;;;;;12.97;12.57;;;20.60;99.90;;;;;;5129354;27;20606;-64
2023/08/29 10:57:46;;;;;;;12.37;11.97;;;20.70;99.90;;;;;;5129766;27;20298;-65
2023/08/29 11:00:18;;;;;;;11.90;11.50;;;21.00;99.90;;;;;;5122446;27;20240;-64
2023/08/29 11:02:47;;;;;;;11.40;11.00;;;21.00;99.90;;;;;;5110747;27;20206;-64
2023/08/29 11:05:15;;;;;;;10.85;10.45;;;21.10;99.90;;;;;;5110684;28;20692;-64
2023/08/29 11:07:44;;;;;;;10.80;10.40;;;21.30;99.90;;;;;;5108533;27;20256;-63
2023/08/29 11:10:20;;;;;;;11.30;10.90;;;21.40;99.90;;;;;;5107850;27;20265;-64
2023/08/29 11:13:07;;;;;;;11.00;10.60;;;21.10;99.90;;;;;;5129093;27;20208;-64
2023/08/29 11:16:06;;;;;;;10.73;10.33;;;21.20;99.90;;;;;;5128586;27;20209;-63
2023/08/29 11:18:33;;;;;;;11.47;11.07;;;21.40;99.90;;;;;;5127705;27;20200;-64
2023/08/29 11:21:05;;;;;;;11.90;11.50;;;21.40;99.90;;;;;;5128737;27;20210;-63
2023/08/29 11:23:38;;;;;;;11.87;11.47;;;21.50;99.90;;;;;;5129746;27;20263;-63
2023/08/29 11:26:05;;;;;;;10.93;10.53;;;21.50;99.90;;;;;;5128862;27;20217;-65
2023/08/29 11:28:34;;;;;;;10.98;10.50;;;21.40;99.90;;;;;;5127204;27;20229;-64
2023/08/29 11:31:01;;;;;;;10.80;10.40;;;21.20;99.90;;;;;;5126704;27;20276;-63
2023/08/29 11:33:33;;;;;;;10.35;10.05;;;21.30;99.90;;;;;;5128271;27;20289;-64
2023/08/29 11:36:02;;;;;;;10.00;9.70;;;21.10;99.90;;;;;;5124855;27;20226;-65
2023/08/29 11:38:30;;;;;;;10.97;10.57;;;21.00;99.90;;;;;;5127222;27;20583;-64
2023/08/29 11:40:59;;;;;;;10.43;10.03;;;21.00;99.90;;;;;;5125907;27;20677;-64
2023/08/29 11:43:27;;;;;;;10.25;9.95;;;20.90;99.90;;;;;;5130125;27;20193;-65
2023/08/29 11:45:57;;;;;;;10.90;10.50;;;20.80;99.90;;;;;;5126034;27;20222;-66
2023/08/29 11:48:25;;;;;;;10.27;9.90;;;20.80;99.90;;;;;;5127256;27;20193;-64
2023/08/29 11:50:54;;;;;;;10.73;10.32;;;20.70;99.90;;;;;;5126808;27;20198;-63
2023/08/29 11:53:30;;;;;;;10.20;9.90;;;20.70;99.90;;;;;;5124268;27;20217;-64
2023/08/29 11:55:59;;;;;;;10.30;10.00;;;20.90;99.90;;;;;;5130100;27;20274;-66
2023/08/29 11:58:28;;;;;;;10.20;9.90;;;20.90;99.90;;;;;;5125222;27;20280;-65
2023/08/29 12:00:55;;;;;;;10.57;10.18;;;20.90;99.90;;;;;;5124700;27;20195;-66
2023/08/29 12:03:25;;;;;;;10.23;9.82;;;20.70;99.90;;;;;;5115854;28;20285;-63
2023/08/29 12:05:51;;;;;;;11.33;10.93;;;20.50;99.90;;;;;;5120893;27;20320;-64
2023/08/29 12:08:34;;;;;;;11.10;10.70;;;20.50;99.90;;;;;;5126483;27;20204;-63
2023/08/29 12:11:02;;;;;;;12.17;11.77;;;20.50;99.90;;;;;;5125865;27;20686;-64
2023/08/29 12:13:29;;;;;;;11.40;11.00;;;20.50;99.90;;;;;;5124041;27;20189;-64
2023/08/29 12:15:56;;;;;;;11.55;11.15;;;20.60;99.90;;;;;;5126360;27;20610;-64
2023/08/29 12:18:24;;;;;;;11.90;11.50;;;20.60;99.90;;;;;;5125087;27;20197;-65
2023/08/29 12:20:51;;;;;;;11.53;11.13;;;20.60;99.90;;;;;;5124632;27;20263;-65
2023/08/29 12:23:26;;;;;;;11.30;10.90;;;20.60;99.90;;;;;;5130198;27;20229;-63
2023/08/29 12:25:55;;;;;;;11.30;10.90;;;20.60;99.90;;;;;;5128185;27;20262;-64
2023/08/29 12:28:25;;;;;;;11.43;11.03;;;20.60;99.90;;;;;;5135294;27;20292;-64
2023/08/29 12:30:52;;;;;;;12.10;11.70;;;20.60;99.90;;;;;;5136084;27;20205;-66
2023/08/29 12:33:20;;;;;;;11.90;11.50;;;20.60;99.90;;;;;;5137587;27;20244;-63